sensor_id;sensor_type;location;lat;lon;timestamp;pressure;altitude;pressure_sealevel;temperature;humidity
45813;BME280;31519;45.408;10.962;2022-12-29T00:00:09;101458.28;;;11.04;76.38
45813;BME280;31519;45.408;10.962;2022-12-29T00:03:02;101467.75;;;11.15;76.59
45813;BME280;31519;45.408;10.962;2022-12-29T00:05:30;101458.34;;;10.99;76.84
45813;BME280;31519;45.408;10.962;2022-12-29T00:07:58;101443.63;;;11.25;76.47
45813;BME280;31519;45.408;10.962;2022-12-29T00:10:26;101437.72;;;11.28;75.79
45813;BME280;31519;45.408;10.962;2022-12-29T00:12:55;101435.47;;;11.17;75.88
45813;BME280;31519;45.408;10.962;2022-12-29T00:15:41;101431.09;;;11.02;76.62
45813;BME280;31519;45.408;10.962;2022-12-29T00:18:09;101429.78;;;11.23;76.46
45813;BME280;31519;45.408;10.962;2022-12-29T00:20:38;101429.25;;;11.02;77.24
45813;BME280;31519;45.408;10.962;2022-12-29T00:23:24;101441.75;;;10.78;78.76
45813;BME280;31519;45.408;10.962;2022-12-29T00:26:13;101439.84;;;11.07;77.11
45813;BME280;31519;45.408;10.962;2022-12-29T00:29:01;101443.91;;;11.00;77.27
45813;BME280;31519;45.408;10.962;2022-12-29T00:31:48;101451.25;;;10.89;78.40
45813;BME280;31519;45.408;10.962;2022-12-29T00:34:36;101444.84;;;10.61;79.56
45813;BME280;31519;45.408;10.962;2022-12-29T00:37:22;101440.09;;;10.58;80.45
45813;BME280;31519;45.408;10.962;2022-12-29T00:40:35;101423.97;;;10.68;80.39
45813;BME280;31519;45.408;10.962;2022-12-29T00:43:22;101421.38;;;10.63;80.36
45813;BME280;31519;45.408;10.962;2022-12-29T00:46:10;101434.16;;;10.33;81.73
45813;BME280;31519;45.408;10.962;2022-12-29T00:48:46;101434.38;;;10.41;82.64
45813;BME280;31519;45.408;10.962;2022-12-29T00:51:33;101436.38;;;10.54;81.97
45813;BME280;31519;45.408;10.962;2022-12-29T00:54:01;101436.75;;;10.04;82.89
45813;BME280;31519;45.408;10.962;2022-12-29T00:56:30;101427.47;;;10.01;83.58
45813;BME280;31519;45.408;10.962;2022-12-29T00:59:03;101429.09;;;9.97;84.87
45813;BME280;31519;45.408;10.962;2022-12-29T01:01:34;101430.94;;;9.97;84.08
45813;BME280;31519;45.408;10.962;2022-12-29T01:04:03;101423.16;;;9.71;85.09
45813;BME280;31519;45.408;10.962;2022-12-29T01:06:32;101429.25;;;10.16;83.85
45813;BME280;31519;45.408;10.962;2022-12-29T01:09:02;101436.84;;;10.33;82.32
45813;BME280;31519;45.408;10.962;2022-12-29T01:11:50;101433.66;;;10.31;80.83
45813;BME280;31519;45.408;10.962;2022-12-29T01:14:18;101433.28;;;10.42;80.46
45813;BME280;31519;45.408;10.962;2022-12-29T01:16:47;101436.44;;;10.49;80.56
45813;BME280;31519;45.408;10.962;2022-12-29T01:19:18;101434.94;;;10.67;80.34
45813;BME280;31519;45.408;10.962;2022-12-29T01:21:47;101439.94;;;10.74;79.95
45813;BME280;31519;45.408;10.962;2022-12-29T01:24:17;101447.06;;;10.78;79.61
45813;BME280;31519;45.408;10.962;2022-12-29T01:26:47;101438.31;;;10.73;79.15
45813;BME280;31519;45.408;10.962;2022-12-29T01:29:17;101433.91;;;10.63;79.54
45813;BME280;31519;45.408;10.962;2022-12-29T01:31:46;101430.91;;;10.70;79.17
45813;BME280;31519;45.408;10.962;2022-12-29T01:34:14;101425.97;;;10.82;78.97
45813;BME280;31519;45.408;10.962;2022-12-29T01:36:42;101436.50;;;10.68;79.68
45813;BME280;31519;45.408;10.962;2022-12-29T01:39:11;101437.88;;;10.94;78.52
45813;BME280;31519;45.408;10.962;2022-12-29T01:41:41;101438.72;;;10.61;79.13
45813;BME280;31519;45.408;10.962;2022-12-29T01:47:21;101443.19;;;10.94;79.19
45813;BME280;31519;45.408;10.962;2022-12-29T01:49:53;101447.16;;;10.68;78.74
45813;BME280;31519;45.408;10.962;2022-12-29T01:52:23;101450.25;;;10.80;78.38
45813;BME280;31519;45.408;10.962;2022-12-29T01:54:55;101451.28;;;10.84;77.42
45813;BME280;31519;45.408;10.962;2022-12-29T01:57:37;101449.38;;;10.90;76.94
45813;BME280;31519;45.408;10.962;2022-12-29T02:00:08;101445.97;;;11.08;76.97
45813;BME280;31519;45.408;10.962;2022-12-29T02:02:46;101437.56;;;10.72;78.72
45813;BME280;31519;45.408;10.962;2022-12-29T02:05:52;101436.28;;;10.93;78.82
45813;BME280;31519;45.408;10.962;2022-12-29T02:08:26;101430.41;;;11.15;78.01
45813;BME280;31519;45.408;10.962;2022-12-29T02:10:56;101420.72;;;11.00;78.83
45813;BME280;31519;45.408;10.962;2022-12-29T02:13:27;101410.25;;;10.85;80.58
45813;BME280;31519;45.408;10.962;2022-12-29T02:16:18;101406.66;;;10.95;80.90
45813;BME280;31519;45.408;10.962;2022-12-29T02:32:50;101400.97;;;10.78;83.17
45813;BME280;31519;45.408;10.962;2022-12-29T02:38:14;101404.78;;;10.95;84.58
45813;BME280;31519;45.408;10.962;2022-12-29T02:40:57;101400.41;;;11.04;83.81
45813;BME280;31519;45.408;10.962;2022-12-29T02:43:38;101415.31;;;10.82;83.76
45813;BME280;31519;45.408;10.962;2022-12-29T02:46:34;101418.94;;;11.15;82.71
45813;BME280;31519;45.408;10.962;2022-12-29T02:49:10;101410.94;;;10.91;84.17
45813;BME280;31519;45.408;10.962;2022-12-29T02:54:28;101404.06;;;11.14;85.19
45813;BME280;31519;45.408;10.962;2022-12-29T02:57:33;101395.53;;;11.11;85.96
45813;BME280;31519;45.408;10.962;2022-12-29T03:11:03;101383.16;;;10.73;91.23
45813;BME280;31519;45.408;10.962;2022-12-29T03:13:52;101379.31;;;10.84;91.57
45813;BME280;31519;45.408;10.962;2022-12-29T03:16:48;101383.16;;;10.97;90.32
45813;BME280;31519;45.408;10.962;2022-12-29T03:19:23;101387.28;;;10.89;91.50
45813;BME280;31519;45.408;10.962;2022-12-29T03:22:15;101403.53;;;10.88;90.76
45813;BME280;31519;45.408;10.962;2022-12-29T03:25:20;101393.75;;;10.54;92.54
45813;BME280;31519;45.408;10.962;2022-12-29T03:28:01;101392.06;;;10.63;91.81
45813;BME280;31519;45.408;10.962;2022-12-29T03:30:36;101390.00;;;10.55;92.30
45813;BME280;31519;45.408;10.962;2022-12-29T03:33:09;101370.53;;;10.60;93.04
45813;BME280;31519;45.408;10.962;2022-12-29T03:35:42;101373.09;;;10.70;92.91
45813;BME280;31519;45.408;10.962;2022-12-29T03:40:57;101367.06;;;10.83;92.67
45813;BME280;31519;45.408;10.962;2022-12-29T03:43:30;101367.66;;;10.80;92.76
45813;BME280;31519;45.408;10.962;2022-12-29T03:45:59;101376.81;;;10.69;93.40
45813;BME280;31519;45.408;10.962;2022-12-29T03:48:27;101369.34;;;10.71;93.59
45813;BME280;31519;45.408;10.962;2022-12-29T03:50:58;101358.63;;;10.76;93.73
45813;BME280;31519;45.408;10.962;2022-12-29T03:53:27;101364.25;;;10.75;93.99
45813;BME280;31519;45.408;10.962;2022-12-29T03:55:55;101366.31;;;10.78;94.11
45813;BME280;31519;45.408;10.962;2022-12-29T03:58:23;101364.19;;;10.80;93.51
45813;BME280;31519;45.408;10.962;2022-12-29T04:01:01;101375.53;;;10.66;92.08
45813;BME280;31519;45.408;10.962;2022-12-29T04:03:32;101379.84;;;10.34;93.28
45813;BME280;31519;45.408;10.962;2022-12-29T04:06:01;101377.84;;;10.49;91.82
45813;BME280;31519;45.408;10.962;2022-12-29T04:08:36;101377.00;;;10.54;91.98
45813;BME280;31519;45.408;10.962;2022-12-29T04:11:05;101378.03;;;10.58;90.30
45813;BME280;31519;45.408;10.962;2022-12-29T04:13:35;101377.22;;;10.57;90.18
45813;BME280;31519;45.408;10.962;2022-12-29T04:16:03;101375.00;;;10.64;91.21
45813;BME280;31519;45.408;10.962;2022-12-29T04:18:32;101371.66;;;10.54;91.09
45813;BME280;31519;45.408;10.962;2022-12-29T04:21:01;101375.84;;;10.60;90.24
45813;BME280;31519;45.408;10.962;2022-12-29T04:23:38;101372.56;;;10.68;89.51
45813;BME280;31519;45.408;10.962;2022-12-29T04:26:09;101372.91;;;10.61;90.59
45813;BME280;31519;45.408;10.962;2022-12-29T04:28:57;101386.31;;;10.80;90.55
45813;BME280;31519;45.408;10.962;2022-12-29T04:31:34;101396.53;;;10.68;91.40
45813;BME280;31519;45.408;10.962;2022-12-29T04:34:02;101379.59;;;10.59;91.20
45813;BME280;31519;45.408;10.962;2022-12-29T04:36:32;101370.47;;;10.65;91.99
45813;BME280;31519;45.408;10.962;2022-12-29T04:39:01;101363.91;;;10.81;92.16
45813;BME280;31519;45.408;10.962;2022-12-29T04:41:29;101357.22;;;10.84;92.33
45813;BME280;31519;45.408;10.962;2022-12-29T04:43:57;101363.56;;;10.88;92.24
45813;BME280;31519;45.408;10.962;2022-12-29T04:46:34;101367.34;;;10.82;91.47
45813;BME280;31519;45.408;10.962;2022-12-29T04:49:08;101367.06;;;10.83;91.82
45813;BME280;31519;45.408;10.962;2022-12-29T04:51:56;101373.94;;;10.89;91.14
45813;BME280;31519;45.408;10.962;2022-12-29T04:54:25;101363.06;;;10.86;91.60
45813;BME280;31519;45.408;10.962;2022-12-29T04:57:12;101374.75;;;10.90;92.01
45813;BME280;31519;45.408;10.962;2022-12-29T04:59:41;101378.59;;;10.79;92.33
45813;BME280;31519;45.408;10.962;2022-12-29T05:02:10;101399.09;;;10.78;91.74
45813;BME280;31519;45.408;10.962;2022-12-29T05:04:39;101392.97;;;10.54;92.45
45813;BME280;31519;45.408;10.962;2022-12-29T05:07:08;101365.09;;;10.70;91.66
45813;BME280;31519;45.408;10.962;2022-12-29T05:09:37;101360.88;;;10.88;91.96
45813;BME280;31519;45.408;10.962;2022-12-29T05:12:06;101354.88;;;11.01;91.22
45813;BME280;31519;45.408;10.962;2022-12-29T05:14:38;101369.97;;;10.87;89.64
45813;BME280;31519;45.408;10.962;2022-12-29T05:17:09;101369.00;;;10.78;88.63
45813;BME280;31519;45.408;10.962;2022-12-29T05:19:37;101370.41;;;10.70;89.52
45813;BME280;31519;45.408;10.962;2022-12-29T05:22:06;101370.91;;;10.48;89.41
45813;BME280;31519;45.408;10.962;2022-12-29T05:24:34;101378.16;;;10.43;89.18
45813;BME280;31519;45.408;10.962;2022-12-29T05:27:04;101384.47;;;10.52;88.47
45813;BME280;31519;45.408;10.962;2022-12-29T05:30:08;101382.13;;;10.45;86.66
45813;BME280;31519;45.408;10.962;2022-12-29T05:32:37;101396.34;;;10.36;88.29
45813;BME280;31519;45.408;10.962;2022-12-29T05:35:05;101397.78;;;10.52;86.77
45813;BME280;31519;45.408;10.962;2022-12-29T05:37:34;101391.47;;;10.43;85.46
45813;BME280;31519;45.408;10.962;2022-12-29T05:40:03;101394.59;;;10.50;86.17
45813;BME280;31519;45.408;10.962;2022-12-29T05:42:32;101382.19;;;10.40;87.53
45813;BME280;31519;45.408;10.962;2022-12-29T05:45:36;101380.78;;;10.48;87.48
45813;BME280;31519;45.408;10.962;2022-12-29T05:48:23;101391.53;;;10.38;85.84
45813;BME280;31519;45.408;10.962;2022-12-29T05:51:14;101386.16;;;10.43;85.56
45813;BME280;31519;45.408;10.962;2022-12-29T05:53:51;101394.97;;;10.38;84.82
45813;BME280;31519;45.408;10.962;2022-12-29T05:56:19;101389.47;;;10.30;85.83
45813;BME280;31519;45.408;10.962;2022-12-29T05:58:55;101384.19;;;10.25;85.46
45813;BME280;31519;45.408;10.962;2022-12-29T06:01:24;101383.25;;;10.05;86.54
45813;BME280;31519;45.408;10.962;2022-12-29T06:03:54;101385.84;;;10.15;87.31
45813;BME280;31519;45.408;10.962;2022-12-29T06:06:22;101385.78;;;10.26;88.15
45813;BME280;31519;45.408;10.962;2022-12-29T06:08:51;101380.19;;;10.22;89.28
45813;BME280;31519;45.408;10.962;2022-12-29T06:11:20;101384.22;;;10.19;89.75
45813;BME280;31519;45.408;10.962;2022-12-29T06:13:53;101383.75;;;10.41;88.79
45813;BME280;31519;45.408;10.962;2022-12-29T06:16:21;101388.09;;;10.32;89.00
45813;BME280;31519;45.408;10.962;2022-12-29T06:18:51;101387.06;;;10.28;88.54
45813;BME280;31519;45.408;10.962;2022-12-29T06:21:20;101389.16;;;10.60;87.42
45813;BME280;31519;45.408;10.962;2022-12-29T06:23:48;101385.56;;;10.46;87.09
45813;BME280;31519;45.408;10.962;2022-12-29T06:26:16;101373.72;;;10.62;87.93
45813;BME280;31519;45.408;10.962;2022-12-29T06:28:46;101364.16;;;10.56;87.89
45813;BME280;31519;45.408;10.962;2022-12-29T06:31:15;101373.72;;;10.33;89.11
45813;BME280;31519;45.408;10.962;2022-12-29T06:33:43;101367.09;;;10.31;89.39
45813;BME280;31519;45.408;10.962;2022-12-29T06:36:17;101367.06;;;9.97;90.06
45813;BME280;31519;45.408;10.962;2022-12-29T06:38:45;101364.66;;;10.00;91.11
45813;BME280;31519;45.408;10.962;2022-12-29T06:41:15;101370.28;;;9.99;91.11
45813;BME280;31519;45.408;10.962;2022-12-29T06:44:09;101383.66;;;10.22;89.55
45813;BME280;31519;45.408;10.962;2022-12-29T06:46:53;101376.69;;;9.93;91.24
45813;BME280;31519;45.408;10.962;2022-12-29T06:49:21;101368.50;;;9.84;91.22
45813;BME280;31519;45.408;10.962;2022-12-29T06:51:49;101377.72;;;9.97;90.85
45813;BME280;31519;45.408;10.962;2022-12-29T06:54:17;101384.59;;;10.03;90.18
45813;BME280;31519;45.408;10.962;2022-12-29T06:56:45;101389.19;;;9.92;89.89
45813;BME280;31519;45.408;10.962;2022-12-29T06:59:13;101382.47;;;9.66;90.73
45813;BME280;31519;45.408;10.962;2022-12-29T07:01:42;101388.09;;;9.98;89.90
45813;BME280;31519;45.408;10.962;2022-12-29T07:04:11;101380.94;;;9.94;89.76
45813;BME280;31519;45.408;10.962;2022-12-29T07:06:39;101381.84;;;9.79;90.64
45813;BME280;31519;45.408;10.962;2022-12-29T07:09:09;101382.00;;;9.93;90.07
45813;BME280;31519;45.408;10.962;2022-12-29T07:11:39;101376.75;;;9.83;90.20
45813;BME280;31519;45.408;10.962;2022-12-29T07:14:07;101391.44;;;9.80;89.53
45813;BME280;31519;45.408;10.962;2022-12-29T07:16:35;101395.44;;;9.72;90.36
45813;BME280;31519;45.408;10.962;2022-12-29T07:19:03;101394.78;;;9.91;90.84
45813;BME280;31519;45.408;10.962;2022-12-29T07:21:32;101393.44;;;9.98;91.25
45813;BME280;31519;45.408;10.962;2022-12-29T07:24:00;101387.44;;;10.16;91.74
45813;BME280;31519;45.408;10.962;2022-12-29T07:26:28;101394.41;;;10.41;91.04
45813;BME280;31519;45.408;10.962;2022-12-29T07:29:04;101404.75;;;10.48;90.64
45813;BME280;31519;45.408;10.962;2022-12-29T07:31:32;101394.72;;;10.40;89.96
45813;BME280;31519;45.408;10.962;2022-12-29T07:34:00;101397.22;;;10.55;89.82
45813;BME280;31519;45.408;10.962;2022-12-29T07:36:29;101401.19;;;10.57;88.39
45813;BME280;31519;45.408;10.962;2022-12-29T07:39:02;101392.84;;;10.64;88.36
45813;BME280;31519;45.408;10.962;2022-12-29T07:41:30;101384.38;;;10.62;88.35
45813;BME280;31519;45.408;10.962;2022-12-29T07:44:01;101377.72;;;10.59;88.65
45813;BME280;31519;45.408;10.962;2022-12-29T07:46:51;101387.81;;;10.86;86.90
45813;BME280;31519;45.408;10.962;2022-12-29T07:49:23;101396.16;;;10.80;85.28
45813;BME280;31519;45.408;10.962;2022-12-29T07:51:52;101393.56;;;10.75;84.77
45813;BME280;31519;45.408;10.962;2022-12-29T07:54:20;101401.44;;;10.85;84.20
45813;BME280;31519;45.408;10.962;2022-12-29T07:56:51;101399.81;;;10.60;84.60
45813;BME280;31519;45.408;10.962;2022-12-29T07:59:19;101400.19;;;10.77;84.72
45813;BME280;31519;45.408;10.962;2022-12-29T08:01:47;101419.63;;;10.78;83.45
45813;BME280;31519;45.408;10.962;2022-12-29T08:04:15;101425.16;;;10.29;86.39
45813;BME280;31519;45.408;10.962;2022-12-29T08:06:43;101420.09;;;10.27;88.46
45813;BME280;31519;45.408;10.962;2022-12-29T08:09:13;101429.03;;;10.41;88.46
45813;BME280;31519;45.408;10.962;2022-12-29T08:11:49;101424.50;;;10.71;87.46
45813;BME280;31519;45.408;10.962;2022-12-29T08:14:17;101431.19;;;10.68;87.67
45813;BME280;31519;45.408;10.962;2022-12-29T08:16:47;101428.28;;;10.64;87.86
45813;BME280;31519;45.408;10.962;2022-12-29T08:19:15;101417.41;;;10.61;87.69
45813;BME280;31519;45.408;10.962;2022-12-29T08:21:44;101434.19;;;10.61;87.49
45813;BME280;31519;45.408;10.962;2022-12-29T08:24:12;101432.59;;;10.60;87.74
45813;BME280;31519;45.408;10.962;2022-12-29T08:26:41;101433.47;;;10.80;86.85
45813;BME280;31519;45.408;10.962;2022-12-29T08:29:09;101443.44;;;10.69;87.91
45813;BME280;31519;45.408;10.962;2022-12-29T08:31:37;101445.56;;;10.72;88.21
45813;BME280;31519;45.408;10.962;2022-12-29T08:34:05;101449.91;;;10.63;88.42
45813;BME280;31519;45.408;10.962;2022-12-29T08:36:33;101451.25;;;10.89;87.00
45813;BME280;31519;45.408;10.962;2022-12-29T08:39:01;101453.59;;;10.91;86.29
45813;BME280;31519;45.408;10.962;2022-12-29T08:41:30;101462.19;;;10.88;87.69
45813;BME280;31519;45.408;10.962;2022-12-29T08:43:58;101459.41;;;10.98;87.51
45813;BME280;31519;45.408;10.962;2022-12-29T08:46:26;101464.47;;;10.71;89.72
45813;BME280;31519;45.408;10.962;2022-12-29T08:48:54;101464.25;;;10.67;89.01
45813;BME280;31519;45.408;10.962;2022-12-29T08:51:23;101470.22;;;10.83;88.69
45813;BME280;31519;45.408;10.962;2022-12-29T08:53:52;101470.50;;;10.81;87.40
45813;BME280;31519;45.408;10.962;2022-12-29T08:56:21;101461.78;;;10.76;87.43
45813;BME280;31519;45.408;10.962;2022-12-29T08:58:54;101462.84;;;10.75;86.68
45813;BME280;31519;45.408;10.962;2022-12-29T09:01:24;101471.34;;;10.77;86.28
45813;BME280;31519;45.408;10.962;2022-12-29T09:03:53;101468.94;;;11.04;85.26
45813;BME280;31519;45.408;10.962;2022-12-29T09:06:43;101460.69;;;11.00;85.91
45813;BME280;31519;45.408;10.962;2022-12-29T09:09:11;101460.09;;;11.08;84.65
45813;BME280;31519;45.408;10.962;2022-12-29T09:11:40;101453.50;;;11.01;84.87
45813;BME280;31519;45.408;10.962;2022-12-29T09:14:09;101450.16;;;11.14;84.97
45813;BME280;31519;45.408;10.962;2022-12-29T09:16:38;101457.78;;;11.26;84.18
45813;BME280;31519;45.408;10.962;2022-12-29T09:19:06;101457.38;;;11.14;84.84
45813;BME280;31519;45.408;10.962;2022-12-29T09:21:34;101465.81;;;11.21;84.86
45813;BME280;31519;45.408;10.962;2022-12-29T09:24:02;101466.34;;;11.23;83.42
45813;BME280;31519;45.408;10.962;2022-12-29T09:26:30;101459.63;;;11.25;83.03
45813;BME280;31519;45.408;10.962;2022-12-29T09:28:58;101451.91;;;11.24;84.04
45813;BME280;31519;45.408;10.962;2022-12-29T09:31:26;101449.59;;;11.17;85.05
45813;BME280;31519;45.408;10.962;2022-12-29T09:33:54;101450.81;;;11.48;84.47
45813;BME280;31519;45.408;10.962;2022-12-29T09:36:23;101448.94;;;11.49;84.28
45813;BME280;31519;45.408;10.962;2022-12-29T09:38:53;101441.94;;;11.34;85.17
45813;BME280;31519;45.408;10.962;2022-12-29T09:41:49;101446.56;;;11.47;85.04
45813;BME280;31519;45.408;10.962;2022-12-29T09:47:13;101454.53;;;11.71;85.52
45813;BME280;31519;45.408;10.962;2022-12-29T09:50:16;101456.56;;;11.79;84.98
45813;BME280;31519;45.408;10.962;2022-12-29T09:53:14;101453.00;;;11.65;85.86
45813;BME280;31519;45.408;10.962;2022-12-29T09:55:48;101463.19;;;11.63;87.01
45813;BME280;31519;45.408;10.962;2022-12-29T09:58:34;101452.13;;;11.51;86.92
45813;BME280;31519;45.408;10.962;2022-12-29T10:01:06;101448.25;;;11.62;87.64
45813;BME280;31519;45.408;10.962;2022-12-29T10:03:50;101449.19;;;11.71;86.88
45813;BME280;31519;45.408;10.962;2022-12-29T10:06:42;101451.31;;;11.74;86.98
45813;BME280;31519;45.408;10.962;2022-12-29T10:09:47;101449.84;;;11.63;86.93
45813;BME280;31519;45.408;10.962;2022-12-29T10:15:40;101439.44;;;12.36;85.55
45813;BME280;31519;45.408;10.962;2022-12-29T10:24:13;101436.16;;;13.54;77.96
45813;BME280;31519;45.408;10.962;2022-12-29T10:26:42;101424.84;;;13.93;77.03
45813;BME280;31519;45.408;10.962;2022-12-29T10:29:16;101415.47;;;14.04;74.84
45813;BME280;31519;45.408;10.962;2022-12-29T10:32:04;101416.59;;;13.89;73.70
45813;BME280;31519;45.408;10.962;2022-12-29T10:34:39;101411.91;;;13.72;74.73
45813;BME280;31519;45.408;10.962;2022-12-29T10:40:25;101389.50;;;13.68;75.79
45813;BME280;31519;45.408;10.962;2022-12-29T10:42:57;101392.88;;;13.24;76.23
45813;BME280;31519;45.408;10.962;2022-12-29T10:45:29;101393.28;;;13.31;76.73
45813;BME280;31519;45.408;10.962;2022-12-29T10:48:08;101391.59;;;13.22;77.48
45813;BME280;31519;45.408;10.962;2022-12-29T10:50:38;101388.13;;;13.21;77.71
45813;BME280;31519;45.408;10.962;2022-12-29T10:53:20;101383.44;;;13.41;78.11
45813;BME280;31519;45.408;10.962;2022-12-29T10:55:50;101387.41;;;13.29;78.15
45813;BME280;31519;45.408;10.962;2022-12-29T10:58:19;101380.19;;;13.30;77.95
45813;BME280;31519;45.408;10.962;2022-12-29T11:00:51;101395.16;;;13.31;78.02
45813;BME280;31519;45.408;10.962;2022-12-29T11:03:41;101383.47;;;13.13;78.35
45813;BME280;31519;45.408;10.962;2022-12-29T11:06:27;101389.41;;;13.10;78.67
45813;BME280;31519;45.408;10.962;2022-12-29T11:09:12;101380.88;;;13.08;79.63
45813;BME280;31519;45.408;10.962;2022-12-29T11:11:41;101381.97;;;12.66;81.57
45813;BME280;31519;45.408;10.962;2022-12-29T11:14:19;101379.09;;;12.90;82.05
45813;BME280;31519;45.408;10.962;2022-12-29T11:16:59;101362.97;;;12.95;81.18
45813;BME280;31519;45.408;10.962;2022-12-29T11:19:30;101368.41;;;13.17;79.47
45813;BME280;31519;45.408;10.962;2022-12-29T11:22:31;101362.25;;;13.30;79.25
45813;BME280;31519;45.408;10.962;2022-12-29T11:25:10;101364.81;;;13.36;79.17
45813;BME280;31519;45.408;10.962;2022-12-29T11:27:55;101378.13;;;13.27;79.99
45813;BME280;31519;45.408;10.962;2022-12-29T11:30:27;101383.94;;;13.02;80.53
45813;BME280;31519;45.408;10.962;2022-12-29T11:32:57;101380.50;;;12.74;82.43
45813;BME280;31519;45.408;10.962;2022-12-29T11:35:33;101381.16;;;12.52;84.93
45813;BME280;31519;45.408;10.962;2022-12-29T11:38:21;101376.94;;;12.65;85.21
45813;BME280;31519;45.408;10.962;2022-12-29T11:40:51;101376.72;;;12.15;88.68
45813;BME280;31519;45.408;10.962;2022-12-29T11:43:31;101367.78;;;12.06;89.82
45813;BME280;31519;45.408;10.962;2022-12-29T11:46:03;101367.91;;;11.82;89.99
45813;BME280;31519;45.408;10.962;2022-12-29T11:48:39;101361.22;;;12.17;89.89
45813;BME280;31519;45.408;10.962;2022-12-29T11:51:10;101360.72;;;12.29;90.24
45813;BME280;31519;45.408;10.962;2022-12-29T11:53:47;101364.72;;;11.99;90.79
45813;BME280;31519;45.408;10.962;2022-12-29T11:56:21;101371.22;;;11.74;91.57
45813;BME280;31519;45.408;10.962;2022-12-29T11:58:50;101375.84;;;11.50;93.05
45813;BME280;31519;45.408;10.962;2022-12-29T12:01:32;101372.66;;;11.67;93.46
45813;BME280;31519;45.408;10.962;2022-12-29T12:04:12;101370.75;;;11.72;94.02
45813;BME280;31519;45.408;10.962;2022-12-29T12:06:58;101362.00;;;11.85;92.85
45813;BME280;31519;45.408;10.962;2022-12-29T12:10:15;101352.66;;;11.64;94.87
45813;BME280;31519;45.408;10.962;2022-12-29T12:12:53;101348.53;;;12.09;92.81
45813;BME280;31519;45.408;10.962;2022-12-29T12:15:40;101324.00;;;12.21;91.36
45813;BME280;31519;45.408;10.962;2022-12-29T12:18:28;101303.34;;;12.26;91.74
45813;BME280;31519;45.408;10.962;2022-12-29T12:21:13;101302.66;;;12.34;92.24
45813;BME280;31519;45.408;10.962;2022-12-29T12:24:05;101305.03;;;12.36;91.95
45813;BME280;31519;45.408;10.962;2022-12-29T12:27:01;101294.38;;;12.36;91.75
45813;BME280;31519;45.408;10.962;2022-12-29T12:29:48;101311.56;;;12.30;91.16
45813;BME280;31519;45.408;10.962;2022-12-29T12:32:43;101325.78;;;12.12;91.48
45813;BME280;31519;45.408;10.962;2022-12-29T12:35:34;101317.41;;;12.18;91.07
45813;BME280;31519;45.408;10.962;2022-12-29T12:43:24;101353.03;;;11.57;94.22
45813;BME280;31519;45.408;10.962;2022-12-29T13:00:21;101318.50;;;11.85;97.28
45813;BME280;31519;45.408;10.962;2022-12-29T13:05:34;101312.34;;;11.84;97.98
45813;BME280;31519;45.408;10.962;2022-12-29T13:16:27;101360.81;;;11.17;100.00
45813;BME280;31519;45.408;10.962;2022-12-29T13:19:08;101361.50;;;11.03;100.00
45813;BME280;31519;45.408;10.962;2022-12-29T13:25:02;101316.84;;;11.33;100.00
45813;BME280;31519;45.408;10.962;2022-12-29T13:28:02;101312.38;;;11.47;100.00
45813;BME280;31519;45.408;10.962;2022-12-29T13:36:42;101311.88;;;11.45;99.27
45813;BME280;31519;45.408;10.962;2022-12-29T13:39:34;101314.97;;;11.52;99.17
45813;BME280;31519;45.408;10.962;2022-12-29T13:42:04;101313.25;;;11.42;100.00
45813;BME280;31519;45.408;10.962;2022-12-29T13:44:53;101315.63;;;11.44;100.00
45813;BME280;31519;45.408;10.962;2022-12-29T13:47:28;101305.31;;;11.19;100.00
45813;BME280;31519;45.408;10.962;2022-12-29T13:50:01;101306.03;;;11.62;100.00
45813;BME280;31519;45.408;10.962;2022-12-29T13:52:39;101305.53;;;11.92;98.45
45813;BME280;31519;45.408;10.962;2022-12-29T14:00:49;101292.59;;;11.85;97.13
45813;BME280;31519;45.408;10.962;2022-12-29T14:06:23;101295.63;;;11.60;98.02
45813;BME280;31519;45.408;10.962;2022-12-29T14:09:01;101302.69;;;11.88;97.58
45813;BME280;31519;45.408;10.962;2022-12-29T14:11:35;101308.72;;;11.94;97.70
45813;BME280;31519;45.408;10.962;2022-12-29T14:14:30;101300.53;;;11.72;97.43
45813;BME280;31519;45.408;10.962;2022-12-29T14:17:10;101297.00;;;11.76;98.64
45813;BME280;31519;45.408;10.962;2022-12-29T14:19:43;101293.09;;;12.01;96.67
45813;BME280;31519;45.408;10.962;2022-12-29T14:22:12;101283.16;;;12.20;96.37
45813;BME280;31519;45.408;10.962;2022-12-29T14:24:45;101289.75;;;11.95;97.27
45813;BME280;31519;45.408;10.962;2022-12-29T14:29:49;101293.81;;;12.07;96.62
45813;BME280;31519;45.408;10.962;2022-12-29T14:34:57;101288.97;;;11.95;97.68
45813;BME280;31519;45.408;10.962;2022-12-29T14:37:34;101282.06;;;12.08;96.91
45813;BME280;31519;45.408;10.962;2022-12-29T14:40:24;101296.50;;;12.07;97.25
45813;BME280;31519;45.408;10.962;2022-12-29T14:42:56;101297.72;;;12.14;97.25
45813;BME280;31519;45.408;10.962;2022-12-29T14:45:30;101302.53;;;12.12;96.90
45813;BME280;31519;45.408;10.962;2022-12-29T14:48:00;101300.91;;;11.97;96.58
45813;BME280;31519;45.408;10.962;2022-12-29T14:50:49;101302.31;;;11.95;95.49
45813;BME280;31519;45.408;10.962;2022-12-29T14:53:53;101300.59;;;11.67;96.56
45813;BME280;31519;45.408;10.962;2022-12-29T14:56:26;101299.38;;;11.78;97.18
45813;BME280;31519;45.408;10.962;2022-12-29T14:58:58;101292.91;;;11.97;96.45
45813;BME280;31519;45.408;10.962;2022-12-29T15:04:02;101288.06;;;11.86;98.48
45813;BME280;31519;45.408;10.962;2022-12-29T15:06:36;101277.31;;;12.05;98.58
45813;BME280;31519;45.408;10.962;2022-12-29T15:09:14;101271.75;;;12.01;99.02